Data for 08/30/2009

Time Sea-Level Adjusted Pressure Absolute Pressure Temperature Relative Humidity Dew Point   
(mb) (inHg) (mb) (inHg) (C) (F) (%) (C) (F)
00:05 1020 30.12 849 25.07 18.3 65 37 3.4 38.1
00:10 1020 30.12 849 25.07 18.2 64.8 37 3.5 38.4
00:15 1020 30.12 849 25.07 18.1 64.5 38 3.7 38.7
00:20 1020 30.12 849 25.07 18 64.4 38 3.7 38.6
00:25 1020 30.12 849 25.07 18 64.3 39 3.8 38.9
00:30 1020 30.12 849 25.07 17.9 64.2 39 3.9 39
00:35 1020 30.12 849 25.07 17.8 64 39 3.9 39
00:40 1020 30.12 850 25.1 17.7 63.9 40 4.1 39.3
00:45 1020 30.12 850 25.1 17.6 63.8 40 4.1 39.4
00:50 1020 30.12 850 25.1 17.6 63.7 41 4.2 39.5
00:55 1020 30.12 849 25.07 17.5 63.5 41 4.2 39.6
01:00 1020 30.12 849 25.07 17.4 63.4 41 4.2 39.6
01:05 1020 30.12 849 25.07 17.4 63.3 41 4.2 39.6
01:10 1020 30.12 849 25.07 17.3 63.2 42 4.3 39.7
01:15 1020 30.12 849 25.07 17.2 63 42 4.4 39.9
01:20 1020 30.12 849 25.07 17.1 62.8 42 4.4 39.9
01:25 1020 30.12 849 25.07 17.1 62.8 43 4.4 39.9
01:30 1020 30.12 849 25.07 17.1 62.7 43 4.4 40
01:35 1020 30.12 849 25.07 17 62.6 43 4.4 39.9
01:40 1020 30.12 849 25.07 17 62.6 43 4.4 40
01:45 1020 30.12 850 25.1 16.9 62.5 43 4.5 40.1
01:50 1020 30.12 849 25.07 16.9 62.4 43 4.4 39.9
01:55 1020 30.12 849 25.07 16.8 62.3 44 4.5 40.1
02:00 1020 30.12 849 25.07 16.8 62.2 44 4.5 40
02:05 1020 30.12 849 25.07 16.8 62.2 44 4.5 40.1
02:10 1020 30.12 849 25.07 16.7 62 44 4.5 40.1
02:15 1020 30.12 849 25.07 16.7 62 44 4.5 40.1
02:20 1020 30.12 849 25.07 16.7 62 44 4.4 40
02:25 1020 30.12 849 25.07 16.6 61.9 44 4.5 40.2
02:30 1020 30.12 849 25.07 16.5 61.8 45 4.6 40.3
02:35 1020 30.12 849 25.07 16.5 61.6 45 4.6 40.2
02:40 1019 30.09 849 25.07 16.4 61.6 45 4.5 40.1
02:45 1019 30.09 849 25.07 16.4 61.6 44 4.4 39.9
02:50 1019 30.09 849 25.07 16.4 61.6 45 4.6 40.2
02:55 1019 30.09 849 25.07 16.4 61.5 45 4.6 40.3
03:00 1019 30.09 848 25.04 16.3 61.4 45 4.6 40.3
03:05 1019 30.09 849 25.07 16.2 61.2 46 4.6 40.3
03:10 1019 30.09 849 25.07 16.2 61.1 46 4.6 40.2
03:15 1019 30.09 849 25.07 16.1 61 46 4.5 40
03:20 1019 30.09 849 25.07 16.2 61.1 46 4.6 40.2
03:25 1019 30.09 849 25.07 16.1 61 46 4.5 40.1
03:30 1019 30.09 849 25.07 16.1 60.9 46 4.6 40.3
03:35 1019 30.09 849 25.07 16.1 60.9 46 4.5 40.1
03:40 1019 30.09 848 25.04 16 60.8 46 4.5 40.1
03:45 1019 30.09 848 25.04 15.9 60.7 46 4.5 40.1
03:50 1019 30.09 848 25.04 15.9 60.5 47 4.5 40.2
03:55 1019 30.09 848 25.04 15.8 60.4 47 4.5 40.1
04:00 1019 30.09 848 25.04 15.7 60.3 47 4.5 40.1
04:05 1019 30.09 848 25.04 15.8 60.4 47 4.4 40
04:10 1019 30.09 849 25.07 15.8 60.4 46 4.4 39.9
04:15 1019 30.09 849 25.07 15.7 60.2 47 4.5 40.1
04:20 1019 30.09 849 25.07 15.6 60 47 4.4 40
04:25 1019 30.09 849 25.07 15.4 59.8 48 4.4 40
04:30 1020 30.12 849 25.07 15.4 59.7 48 4.5 40.1
04:35 1020 30.12 849 25.07 15.3 59.6 48 4.5 40.1
04:40 1020 30.12 849 25.07 15.2 59.4 49 4.6 40.2
04:45 1020 30.12 849 25.07 15.2 59.3 49 4.5 40
04:50 1020 30.12 849 25.07 15.1 59.1 49 4.6 40.2
04:55 1020 30.12 849 25.07 15 59 49 4.5 40.1
05:00 1020 30.12 849 25.07 14.9 58.9 50 4.6 40.4
05:05 1020 30.12 849 25.07 14.9 58.8 50 4.5 40.2
05:10 1020 30.12 849 25.07 14.8 58.6 50 4.5 40.1
05:15 1020 30.12 849 25.07 14.8 58.6 50 4.5 40.1
05:20 1020 30.12 849 25.07 14.7 58.5 49 4.4 39.8
05:25 1020 30.12 849 25.07 14.7 58.5 49 4.3 39.8
05:30 1020 30.12 849 25.07 14.7 58.5 50 4.4 39.9
05:35 1020 30.12 849 25.07 14.6 58.3 50 4.4 39.9
05:40 1020 30.12 849 25.07 14.6 58.2 50 4.3 39.7
05:45 1020 30.12 849 25.07 14.5 58.2 50 4.2 39.6
05:50 1020 30.12 849 25.07 14.6 58.2 49 4.2 39.5
05:55 1020 30.12 849 25.07 14.6 58.3 49 4.2 39.6
06:00 1020 30.12 849 25.07 14.6 58.3 50 4.3 39.8
06:05 1020 30.12 849 25.07 14.4 58 50 4.3 39.8
06:10 1020 30.12 849 25.07 14.4 57.9 51 4.3 39.8
06:15 1020 30.12 849 25.07 14.3 57.7 51 4.3 39.7
06:20 1020 30.12 849 25.07 14.2 57.5 51 4.3 39.7
06:25 1020 30.12 849 25.07 14.2 57.5 51 4.4 39.8
06:30 1020 30.12 849 25.07 14.1 57.4 51 4.3 39.7
06:35 1020 30.12 849 25.07 14.1 57.5 51 4.4 39.9
06:40 1020 30.12 849 25.07 14 57.2 52 4.4 40
06:45 1020 30.12 849 25.07 13.9 57 52 4.4 39.9
06:50 1020 30.12 849 25.07 13.9 57 52 4.3 39.8
06:55 1020 30.12 849 25.07 13.9 57 52 4.3 39.8
07:00 1020 30.12 849 25.07 14 57.2 52 4.4 39.8
07:05 1020 30.12 849 25.07 14.1 57.3 52 4.3 39.8
07:10 1020 30.12 849 25.07 14.2 57.6 51 4.4 39.9
07:15 1020 30.12 849 25.07 14.4 57.9 50 4.3 39.7
07:20 1020 30.12 849 25.07 14.4 57.9 51 4.5 40.1
07:25 1020 30.12 849 25.07 14.3 57.8 51 4.4 39.9
07:30 1020 30.12 849 25.07 14.6 58.3 49 4.2 39.6
07:35 1020 30.12 849 25.07 15 59 48 4.2 39.5
07:40 1020 30.12 849 25.07 15.5 59.8 47 4.3 39.7
07:45 1020 30.12 849 25.07 15.6 60 46 4.1 39.3
07:50 1020 30.12 849 25.07 15.8 60.4 45 4.1 39.3
07:55 1020 30.12 849 25.07 15.9 60.7 45 4 39.2
08:00 1020 30.12 849 25.07 16 60.8 45 4.1 39.5
08:05 1020 30.12 849 25.07 16 60.8 45 4.2 39.6
08:10 1020 30.12 849 25.07 15.9 60.5 46 4.2 39.6
08:15 1020 30.12 849 25.07 15.8 60.5 46 4.2 39.5
08:20 1020 30.12 849 25.07 15.9 60.7 45 4.1 39.4
08:25 1020 30.12 849 25.07 16 60.7 46 4.3 39.8
08:30 1020 30.12 849 25.07 15.8 60.4 46 4.2 39.5
08:35 1019 30.09 849 25.07 15.8 60.5 46 4.2 39.6
08:40 1019 30.09 849 25.07 16 60.7 45 4.2 39.5
08:45 1019 30.09 848 25.04 16.2 61.1 44 4 39.3
08:50 1019 30.09 848 25.04 16.5 61.7 44 4.3 39.7
08:55 1019 30.09 848 25.04 16.7 62 43 4.2 39.5
09:00 1019 30.09 848 25.04 16.9 62.4 42 4.1 39.3
09:05 1019 30.09 848 25.04 17.2 62.9 42 4.1 39.4
09:10 1019 30.09 848 25.04 17.5 63.5 41 4.2 39.6
09:15 1019 30.09 848 25.04 17.7 63.8 41 4.2 39.6
09:20 1019 30.09 848 25.04 17.8 64 40 4.2 39.5
09:25 1019 30.09 848 25.04 17.6 63.7 41 4.5 40.1
09:30 1019 30.09 848 25.04 17.6 63.7 41 4.4 39.9
09:35 1019 30.09 849 25.07 17.7 63.9 42 4.6 40.3
09:40 1019 30.09 849 25.07 17.5 63.5 44 5.2 41.4
09:45 1019 30.09 849 25.07 17.4 63.3 45 5.5 41.9
09:50 1019 30.09 849 25.07 17.4 63.3 44 5.2 41.3
09:55 1019 30.09 849 25.07 18.5 65.2 42 5.4 41.7
10:00 1019 30.09 849 25.07 18.5 65.3 44 6.3 43.3
10:05 1019 30.09 849 25.07 18.1 64.6 43 5.3 41.6
10:10 1020 30.12 849 25.07 17.7 63.8 43 5.2 41.4
10:15 1020 30.12 849 25.07 17.7 63.9 45 5.7 42.3
10:20 1019 30.09 849 25.07 17.7 63.9 43 5.2 41.4
10:25 1020 30.12 849 25.07 18 64.3 44 5.6 42.1
10:30 1020 30.12 849 25.07 18 64.3 44 5.8 42.4
10:35 1020 30.12 849 25.07 18 64.4 44 5.6 42
10:40 1020 30.12 849 25.07 18.2 64.7 44 5.7 42.3
10:45 1020 30.12 849 25.07 18.4 65.1 42 5.5 41.9
10:50 1019 30.09 849 25.07 18.4 65 44 6 42.7
10:55 1020 30.12 849 25.07 18.3 64.9 45 6.1 43.1
11:00 1019 30.09 849 25.07 18.4 65.1 43 5.6 42.2
11:05 1019 30.09 849 25.07 18.8 65.8 41 5.5 41.9
11:10 1019 30.09 849 25.07 19.2 66.6 38 4.6 40.3
11:15 1019 30.09 849 25.07 19.3 66.7 41 5.7 42.2
11:20 1019 30.09 849 25.07 19.4 66.9 39 5.4 41.6
11:25 1019 30.09 849 25.07 19.5 67.1 41 6.1 42.9
11:30 1019 30.09 849 25.07 19.8 67.7 39 5.6 42.1
11:35 1019 30.09 848 25.04 20.3 68.5 38 5.7 42.2
11:40 1019 30.09 848 25.04 20.4 68.8 36 4.9 40.8
11:45 1019 30.09 848 25.04 20.5 69 38 5.8 42.4
11:50 1019 30.09 848 25.04 20.9 69.6 39 6.4 43.5
11:55 1019 30.09 848 25.04 21 69.7 38 6.3 43.4
12:00 1019 30.09 848 25.04 21.2 70.2 35 5.4 41.8
12:05 1019 30.09 848 25.04 21 69.9 36 5.4 41.7
12:10 1019 30.09 848 25.04 21 69.7 35 5.2 41.3
12:15 1019 30.09 848 25.04 21 69.8 36 5.5 41.9
12:20 1019 30.09 848 25.04 21.2 70.1 34 5 41
12:25 1019 30.09 848 25.04 21.2 70.2 35 5.2 41.4
12:30 1019 30.09 848 25.04 21.5 70.7 35 5.4 41.7
12:35 1019 30.09 848 25.04 21.6 70.9 35 5.8 42.5
12:40 1019 30.09 848 25.04 21.4 70.5 37 6.3 43.3
12:45 1019 30.09 848 25.04 21.9 71.5 34 5.5 41.8
12:50 1019 30.09 848 25.04 22.3 72.1 33 5.2 41.4
12:55 1018 30.06 848 25.04 22.5 72.4 33 5.4 41.8
13:00 1018 30.06 847 25.01 22.5 72.6 32 5.2 41.4
13:05 1018 30.06 847 25.01 22.4 72.3 33 5.5 41.9
13:10 1018 30.06 847 25.01 22.3 72.1 34 5.7 42.3
13:15 1018 30.06 847 25.01 22.3 72.1 33 5.4 41.7
13:20 1018 30.06 847 25.01 22.1 71.7 34 5.6 42.1
13:25 1018 30.06 847 25.01 22.6 72.6 33 5.6 42
13:30 1018 30.06 847 25.01 22.5 72.5 33 5.6 42.1
13:35 1018 30.06 847 25.01 22.3 72.2 33 5.5 41.8
13:40 1018 30.06 847 25.01 22.1 71.9 34 5.6 42.1
13:45 1018 30.06 847 25.01 22.3 72.2 33 5.3 41.5
13:50 1018 30.06 847 25.01 22.3 72.2 33 5.3 41.6
13:55 1018 30.06 847 25.01 22.6 72.7 32 5.3 41.5
14:00 1018 30.06 847 25.01 22.5 72.5 32 5.3 41.5
14:05 1018 30.06 847 25.01 22.8 73 32 5.4 41.7
14:10 1018 30.06 847 25.01 22.7 72.9 32 5.3 41.5
14:15 1018 30.06 847 25.01 23 73.4 32 5.5 41.9
14:20 1018 30.06 847 25.01 23 73.4 31 5.3 41.6
14:25 1017 30.03 847 25.01 23.1 73.5 31 5.3 41.6
14:30 1017 30.03 847 25.01 23.3 74 30 5.1 41.1
14:35 1017 30.03 846 24.98 23.4 74.2 31 5.5 42
14:40 1017 30.03 846 24.98 23.4 74.2 30 5.2 41.3
14:45 1017 30.03 846 24.98 23.1 73.6 32 5.5 41.9
14:50 1017 30.03 846 24.98 23.5 74.2 31 5.4 41.7
14:55 1017 30.03 846 24.98 23.4 74 31 5.7 42.2
15:00 1017 30.03 846 24.98 23.5 74.2 31 5.6 42
15:05 1017 30.03 846 24.98 23.4 74 32 5.7 42.3
15:10 1017 30.03 846 24.98 23.3 73.9 32 6.1 42.9
15:15 1017 30.03 846 24.98 23.4 74.1 32 6 42.8
15:20 1017 30.03 846 24.98 23.6 74.5 31 5.8 42.4
15:25 1017 30.03 846 24.98 23.8 74.8 31 5.9 42.5
15:30 1017 30.03 846 24.98 24 75.3 31 6.2 43.2
15:35 1017 30.03 846 24.98 24.5 76.1 30 6.3 43.3
15:40 1017 30.03 846 24.98 24.3 75.7 30 6 42.9
15:45 1017 30.03 846 24.98 24.2 75.5 31 6.3 43.4
15:50 1017 30.03 846 24.98 23.9 74.9 31 5.9 42.6
15:55 1017 30.03 846 24.98 23.7 74.7 31 5.7 42.3
16:00 1017 30.03 846 24.98 23.6 74.5 31 5.8 42.5
16:05 1017 30.03 846 24.98 23.5 74.3 31 5.8 42.5
16:10 1017 30.03 846 24.98 23.3 73.9 31 5.5 42
16:15 1017 30.03 846 24.98 23 73.3 31 5.3 41.6
16:20 1017 30.03 846 24.98 22.8 73.1 32 5.4 41.7
16:25 1017 30.03 846 24.98 22.9 73.2 32 5.4 41.7
16:30 1017 30.03 846 24.98 23 73.3 31 5.3 41.6
16:35 1017 30.03 846 24.98 23.1 73.6 32 5.5 42
16:40 1017 30.03 846 24.98 23.1 73.5 32 5.7 42.3
16:45 1017 30.03 846 24.98 22.9 73.2 32 5.5 41.9
16:50 1017 30.03 846 24.98 22.8 73 32 5.4 41.7
16:55 1017 30.03 846 24.98 22.7 72.9 31 5.1 41.2
17:00 1017 30.03 846 24.98 22.7 72.8 32 5.3 41.5
17:05 1017 30.03 846 24.98 22.6 72.7 32 5.2 41.3
17:10 1017 30.03 846 24.98 22.5 72.5 32 5.1 41.2
17:15 1017 30.03 846 24.98 22.4 72.4 32 5 41
17:20 1017 30.03 846 24.98 22.4 72.3 32 5.1 41.2
17:25 1017 30.03 846 24.98 22.3 72.2 32 5.2 41.3
17:30 1017 30.03 846 24.98 22.2 72 32 5.1 41.2
17:35 1017 30.03 846 24.98 22.2 71.9 33 5.2 41.4
17:40 1016 30 846 24.98 22.1 71.8 33 5.1 41.3
17:45 1016 30 846 24.98 22.1 71.8 32 5.1 41.1
17:50 1017 30.03 846 24.98 22.1 71.8 33 5.3 41.6
17:55 1017 30.03 846 24.98 22.1 71.7 33 5.2 41.3
18:00 1017 30.03 846 24.98 22.1 71.7 33 5.4 41.7
18:05 1017 30.03 846 24.98 22 71.6 33 5.3 41.6
18:10 1017 30.03 846 24.98 21.9 71.5 33 5.3 41.6
18:15 1017 30.03 846 24.98 21.9 71.4 33 5.2 41.3
18:20 1016 30 845 24.95 21.9 71.4 34 5.4 41.7
18:25 1016 30 845 24.95 21.8 71.3 34 5.3 41.6
18:30 1016 30 845 24.95 21.8 71.3 34 5.4 41.6
18:35 1016 30 845 24.95 21.8 71.2 34 5.3 41.6
18:40 1016 30 845 24.95 21.8 71.2 34 5.2 41.3
18:45 1016 30 845 24.95 21.7 71.1 34 5.4 41.7
18:50 1016 30 845 24.95 21.6 71 34 5.2 41.4
18:55 1016 30 845 24.95 21.6 70.9 35 5.5 42
19:00 1016 30 845 24.95 21.5 70.6 35 5.6 42.1
19:05 1016 30 845 24.95 21.3 70.3 35 5.6 42
19:10 1016 30 845 24.95 21.2 70.2 35 5.3 41.5
19:15 1016 30 845 24.95 21.2 70.2 35 5.4 41.7
19:20 1016 30 845 24.95 21.1 69.9 36 5.5 41.9
19:25 1016 30 845 24.95 21 69.8 35 5.3 41.5
19:30 1016 30 845 24.95 21 69.7 36 5.5 41.8
19:35 1016 30 845 24.95 20.9 69.6 35 5.2 41.3
19:40 1016 30 845 24.95 20.8 69.5 36 5.4 41.8
19:45 1016 30 845 24.95 20.7 69.3 36 5.4 41.7
19:50 1016 30 845 24.95 20.6 69.1 37 5.4 41.7
19:55 1016 30 845 24.95 20.6 69.1 37 5.6 42.1
20:00 1016 30 845 24.95 20.4 68.8 38 5.7 42.3
20:05 1016 30 845 24.95 20.3 68.5 38 5.8 42.4
20:10 1016 30 845 24.95 20.2 68.4 38 5.8 42.4
20:15 1016 30 845 24.95 20.1 68.2 39 5.8 42.4
20:20 1016 30 845 24.95 20.1 68.2 39 5.7 42.3
20:25 1016 30 845 24.95 20 68 39 5.8 42.4
20:30 1016 30 845 24.95 19.9 67.9 40 5.9 42.7
20:35 1016 30 845 24.95 19.8 67.7 39 5.8 42.4
20:40 1016 30 845 24.95 19.9 67.7 39 5.7 42.3
20:45 1016 30 845 24.95 19.9 67.7 39 5.7 42.3
20:50 1016 30 845 24.95 19.9 67.8 40 5.9 42.6
20:55 1016 30 845 24.95 19.8 67.6 40 5.8 42.5
21:00 1016 30 845 24.95 19.7 67.5 40 5.8 42.4
21:05 1016 30 845 24.95 19.7 67.5 40 5.9 42.7
21:10 1016 30 845 24.95 19.7 67.4 40 6 42.7
21:15 1016 30 845 24.95 19.7 67.4 40 6 42.8
21:20 1016 30 845 24.95 19.6 67.3 40 6 42.8
21:25 1016 30 845 24.95 19.6 67.3 40 6 42.8
21:30 1016 30 845 24.95 19.6 67.4 40 5.8 42.5
21:35 1016 30 845 24.95 19.7 67.5 40 5.9 42.7
21:40 1016 30 845 24.95 19.8 67.6 39 5.8 42.4
21:45 1016 30 845 24.95 19.8 67.6 40 5.9 42.5
21:50 1016 30 845 24.95 19.7 67.5 40 5.9 42.5
21:55 1016 30 845 24.95 19.6 67.3 40 5.9 42.6
22:00 1016 30 845 24.95 19.5 67.2 40 5.8 42.4
22:05 1016 30 845 24.95 19.5 67.1 40 5.9 42.6
22:10 1016 30 845 24.95 19.5 67.2 40 5.7 42.3
22:15 1016 30 845 24.95 19.6 67.3 41 6.1 42.9
22:20 1016 30 846 24.98 19.4 66.8 42 6.1 43
22:25 1017 30.03 846 24.98 19.3 66.7 41 6 42.7
22:30 1017 30.03 846 24.98 19.3 66.7 41 6 42.7
22:35 1017 30.03 846 24.98 19.3 66.7 42 6 42.8
22:40 1017 30.03 846 24.98 19.3 66.7 42 6.1 43
22:45 1017 30.03 846 24.98 19.3 66.7 42 6.1 43
22:50 1017 30.03 846 24.98 19.3 66.7 42 6.1 43
22:55 1018 30.06 847 25.01 19.2 66.6 42 6.1 43
23:00 1018 30.06 847 25.01 19.1 66.5 43 6.2 43.2
23:05 1018 30.06 847 25.01 19.2 66.5 42 5.9 42.7
23:10 1018 30.06 848 25.04 19.3 66.8 41 6 42.8
23:15 1019 30.09 848 25.04 19.6 67.3 41 6 42.8
23:20 1019 30.09 848 25.04 19.7 67.4 40 5.8 42.4
23:25 1019 30.09 848 25.04 19.8 67.7 39 5.7 42.3
23:30 1019 30.09 848 25.04 19.7 67.4 40 5.8 42.4
23:35 1019 30.09 848 25.04 19.4 67 40 5.7 42.2
23:40 1019 30.09 848 25.04 19.3 66.8 40 5.6 42.1
23:45 1019 30.09 848 25.04 19.3 66.7 41 5.8 42.5
23:50 1019 30.09 848 25.04 19.1 66.5 41 5.7 42.2
23:55 1019 30.09 848 25.04 19.1 66.3 42 5.8 42.5
24:00 1018 30.06 848 25.04 18.8 65.8 45 6.8 44.2